HYT0880 ZUCK-ZSHC
Flight info
| Callsign | HYT0880 |
|---|---|
| Flight time | N/A |
| Altitude | 331 |
| Route | OLNER B213 WHA R343 UPLEL W95 SAPIN A470 IGRAT |
| Aircraft | B76F/H-SDE2E3GHIJ3J4J5LM1ORWXY/LB1D1 |
Departure
| Time | 2026-04-27 11:53 |
|---|---|
| Airport | Chongqing Jiangbei International Airport (ZUCK) |
Arrival
| Time | N/A |
|---|---|
| Airport | Hangzhou Xiaoshan International Airport (ZSHC) |
| Time | Latitude | Longitude | Altitude | Speed | Heading |
|---|---|---|---|---|---|
| 2026-04-27 11:38 | 29.73976 | 106.65796 | 1374 ft | 0 kts | 108° |
| 2026-04-27 11:46 | 29.73978 | 106.65789 | 1374 ft | 2 kts | 108° |
| 2026-04-27 11:47 | 29.73982 | 106.65773 | 1374 ft | 2 kts | 108° |
| 2026-04-27 11:47 | 29.73987 | 106.65756 | 1374 ft | 2 kts | 108° |
| 2026-04-27 11:47 | 29.73991 | 106.65740 | 1374 ft | 2 kts | 110° |
| 2026-04-27 11:47 | 29.73999 | 106.65726 | 1374 ft | 2 kts | 142° |
| 2026-04-27 11:48 | 29.74012 | 106.65719 | 1374 ft | 2 kts | 168° |
| 2026-04-27 11:48 | 29.74026 | 106.65718 | 1374 ft | 1 kts | 193° |
| 2026-04-27 11:48 | 29.74032 | 106.65720 | 1374 ft | 1 kts | 198° |
| 2026-04-27 11:48 | 29.74033 | 106.65720 | 1374 ft | 0 kts | 198° |
| 2026-04-27 11:50 | 29.74017 | 106.65714 | 1374 ft | 5 kts | 197° |
| 2026-04-27 11:50 | 29.73958 | 106.65694 | 1374 ft | 12 kts | 198° |
| 2026-04-27 11:50 | 29.73865 | 106.65635 | 1374 ft | 18 kts | 216° |
| 2026-04-27 11:50 | 29.73729 | 106.65550 | 1374 ft | 24 kts | 206° |
| 2026-04-27 11:51 | 29.73576 | 106.65466 | 1374 ft | 24 kts | 205° |
| 2026-04-27 11:51 | 29.73521 | 106.65325 | 1374 ft | 18 kts | 285° |
| 2026-04-27 11:51 | 29.73537 | 106.65259 | 1374 ft | 3 kts | 286° |
| 2026-04-27 11:52 | 29.73547 | 106.65222 | 1374 ft | 6 kts | 286° |
| 2026-04-27 11:52 | 29.73560 | 106.65152 | 1374 ft | 9 kts | 268° |
| 2026-04-27 11:52 | 29.73553 | 106.65127 | 1374 ft | 0 kts | 230° |
| 2026-04-27 11:52 | 29.73519 | 106.65108 | 1374 ft | 10 kts | 198° |
| 2026-04-27 11:53 | 29.73366 | 106.65067 | 1374 ft | 58 kts | 194° |
| 2026-04-27 11:53 | 29.72630 | 106.64819 | 1377 ft | 158 kts | 197° |
| 2026-04-27 11:53 | 29.71437 | 106.64473 | 2177 ft | 186 kts | 185° |
| 2026-04-27 11:53 | 29.70081 | 106.64618 | 2765 ft | 218 kts | 172° |
| 2026-04-27 11:54 | 29.68409 | 106.64661 | 2987 ft | 256 kts | 185° |
| 2026-04-27 11:54 | 29.66656 | 106.64378 | 3212 ft | 251 kts | 190° |
| 2026-04-27 11:54 | 29.64955 | 106.63984 | 3657 ft | 248 kts | 193° |
| 2026-04-27 11:54 | 29.63255 | 106.63525 | 4163 ft | 253 kts | 189° |
| 2026-04-27 11:55 | 29.61501 | 106.63654 | 4652 ft | 255 kts | 158° |
| 2026-04-27 11:55 | 29.59885 | 106.64544 | 5217 ft | 260 kts | 154° |
| 2026-04-27 11:55 | 29.58214 | 106.65270 | 5692 ft | 259 kts | 155° |
| 2026-04-27 11:55 | 29.56785 | 106.66493 | 6196 ft | 257 kts | 125° |
| 2026-04-27 11:56 | 29.56078 | 106.68372 | 6743 ft | 263 kts | 100° |
| 2026-04-27 11:56 | 29.55726 | 106.70425 | 7240 ft | 266 kts | 101° |
| 2026-04-27 11:56 | 29.55336 | 106.72483 | 7714 ft | 264 kts | 102° |
| 2026-04-27 11:56 | 29.54944 | 106.74539 | 8200 ft | 269 kts | 103° |
| 2026-04-27 11:57 | 29.54539 | 106.76636 | 8687 ft | 272 kts | 103° |
| 2026-04-27 11:57 | 29.54125 | 106.78775 | 9171 ft | 274 kts | 103° |
| 2026-04-27 11:57 | 29.53713 | 106.80893 | 9641 ft | 275 kts | 103° |
| 2026-04-27 11:57 | 29.53291 | 106.83057 | 10122 ft | 277 kts | 103° |
| 2026-04-27 11:58 | 29.52874 | 106.85201 | 10603 ft | 279 kts | 103° |
| 2026-04-27 11:58 | 29.52449 | 106.87374 | 11090 ft | 287 kts | 103° |
| 2026-04-27 11:58 | 29.51988 | 106.89727 | 11624 ft | 319 kts | 103° |
| 2026-04-27 11:58 | 29.51635 | 106.92351 | 12142 ft | 349 kts | 91° |
| 2026-04-27 11:59 | 29.51933 | 106.95134 | 12654 ft | 355 kts | 74° |
| 2026-04-27 11:59 | 29.52763 | 106.97831 | 13154 ft | 357 kts | 70° |
| 2026-04-27 11:59 | 29.53587 | 107.00503 | 13626 ft | 360 kts | 71° |
| 2026-04-27 11:59 | 29.54419 | 107.03245 | 14102 ft | 365 kts | 71° |
| 2026-04-27 12:00 | 29.55249 | 107.06004 | 14601 ft | 368 kts | 71° |
| 2026-04-27 12:00 | 29.56083 | 107.08794 | 15091 ft | 373 kts | 71° |
| 2026-04-27 12:00 | 29.56923 | 107.11608 | 15550 ft | 376 kts | 71° |
| 2026-04-27 12:00 | 29.57763 | 107.14439 | 16030 ft | 378 kts | 71° |
| 2026-04-27 12:01 | 29.58615 | 107.17308 | 16507 ft | 383 kts | 71° |
| 2026-04-27 12:01 | 29.59477 | 107.20214 | 16981 ft | 385 kts | 71° |
| 2026-04-27 12:01 | 29.60331 | 107.23099 | 17446 ft | 387 kts | 71° |
| 2026-04-27 12:01 | 29.61225 | 107.26049 | 17914 ft | 391 kts | 68° |
| 2026-04-27 12:02 | 29.62531 | 107.28795 | 18400 ft | 394 kts | 55° |
| 2026-04-27 12:02 | 29.64046 | 107.31427 | 18871 ft | 399 kts | 56° |
| 2026-04-27 12:02 | 29.65573 | 107.34094 | 19342 ft | 400 kts | 55° |
| 2026-04-27 12:02 | 29.67108 | 107.36764 | 19810 ft | 403 kts | 55° |
| 2026-04-27 12:03 | 29.68663 | 107.39465 | 20286 ft | 409 kts | 55° |
| 2026-04-27 12:03 | 29.70228 | 107.42184 | 20756 ft | 411 kts | 55° |
| 2026-04-27 12:03 | 29.71795 | 107.44905 | 21224 ft | 413 kts | 55° |
| 2026-04-27 12:03 | 29.73381 | 107.47661 | 21700 ft | 416 kts | 55° |
| 2026-04-27 12:04 | 29.74976 | 107.50433 | 22170 ft | 420 kts | 55° |
| 2026-04-27 12:04 | 29.76598 | 107.53252 | 22652 ft | 423 kts | 55° |
| 2026-04-27 12:04 | 29.78233 | 107.56098 | 23152 ft | 427 kts | 55° |
| 2026-04-27 12:04 | 29.79860 | 107.58933 | 23637 ft | 430 kts | 55° |
| 2026-04-27 12:05 | 29.81516 | 107.61820 | 24138 ft | 434 kts | 55° |
| 2026-04-27 12:05 | 29.83170 | 107.64702 | 24637 ft | 438 kts | 54° |
| 2026-04-27 12:05 | 29.84874 | 107.67674 | 25145 ft | 443 kts | 55° |
| 2026-04-27 12:05 | 29.86564 | 107.70625 | 25643 ft | 446 kts | 55° |
| 2026-04-27 12:06 | 29.88265 | 107.73601 | 26137 ft | 449 kts | 55° |
| 2026-04-27 12:06 | 29.89981 | 107.76601 | 26635 ft | 453 kts | 55° |
| 2026-04-27 12:06 | 29.91706 | 107.79655 | 27133 ft | 457 kts | 58° |
| 2026-04-27 12:06 | 29.93142 | 107.82965 | 27645 ft | 463 kts | 68° |
| 2026-04-27 12:07 | 29.94143 | 107.86456 | 28154 ft | 467 kts | 73° |
| 2026-04-27 12:07 | 29.95089 | 107.90067 | 28666 ft | 471 kts | 72° |
| 2026-04-27 12:07 | 29.96028 | 107.93696 | 29173 ft | 474 kts | 73° |
| 2026-04-27 12:07 | 29.96962 | 107.97348 | 29704 ft | 478 kts | 73° |
| 2026-04-27 12:08 | 29.97893 | 108.01017 | 30239 ft | 480 kts | 73° |
| 2026-04-27 12:08 | 29.98825 | 108.04700 | 30758 ft | 483 kts | 73° |
| 2026-04-27 12:08 | 29.99767 | 108.08431 | 31293 ft | 484 kts | 73° |
| 2026-04-27 12:08 | 30.00711 | 108.12188 | 31826 ft | 486 kts | 73° |
| 2026-04-27 12:09 | 30.01646 | 108.15909 | 32354 ft | 487 kts | 73° |
| 2026-04-27 12:09 | 30.02586 | 108.19661 | 32885 ft | 487 kts | 73° |
| 2026-04-27 12:09 | 30.03524 | 108.23405 | 33073 ft | 490 kts | 73° |
| 2026-04-27 12:10 | 30.05445 | 108.31094 | 33072 ft | 504 kts | 73° |
| 2026-04-27 12:10 | 30.07368 | 108.38808 | 33064 ft | 498 kts | 73° |
| 2026-04-27 12:11 | 30.09272 | 108.46466 | 33080 ft | 501 kts | 73° |
| 2026-04-27 12:11 | 30.11207 | 108.54269 | 33081 ft | 502 kts | 73° |
| 2026-04-27 12:12 | 30.13341 | 108.61886 | 33087 ft | 502 kts | 70° |
| 2026-04-27 12:12 | 30.15579 | 108.69533 | 33081 ft | 503 kts | 71° |
| 2026-04-27 12:13 | 30.17803 | 108.77167 | 33075 ft | 502 kts | 70° |
| 2026-04-27 12:13 | 30.20023 | 108.84806 | 33084 ft | 503 kts | 70° |
| 2026-04-27 12:14 | 30.22232 | 108.92436 | 33086 ft | 503 kts | 71° |
| 2026-04-27 12:14 | 30.24160 | 109.00173 | 33090 ft | 504 kts | 73° |
| 2026-04-27 12:15 | 30.26082 | 109.08000 | 33084 ft | 505 kts | 73° |
| 2026-04-27 12:15 | 30.27976 | 109.15727 | 33078 ft | 502 kts | 73° |
| 2026-04-27 12:16 | 30.29891 | 109.23556 | 33079 ft | 504 kts | 73° |
| 2026-04-27 12:16 | 30.31781 | 109.31302 | 33086 ft | 503 kts | 73° |
| 2026-04-27 12:17 | 30.33668 | 109.39034 | 33086 ft | 502 kts | 73° |
| 2026-04-27 12:17 | 30.35559 | 109.46802 | 33088 ft | 504 kts | 73° |
| 2026-04-27 12:18 | 30.37448 | 109.54633 | 33089 ft | 504 kts | 73° |
| 2026-04-27 12:18 | 30.39148 | 109.62460 | 33095 ft | 503 kts | 79° |
| 2026-04-27 12:19 | 30.40331 | 109.70416 | 33095 ft | 504 kts | 79° |
| 2026-04-27 12:19 | 30.41517 | 109.78416 | 33096 ft | 503 kts | 79° |
| 2026-04-27 12:20 | 30.42690 | 109.86388 | 33095 ft | 504 kts | 79° |
| 2026-04-27 12:20 | 30.43850 | 109.94337 | 33109 ft | 503 kts | 79° |
| 2026-04-27 12:21 | 30.45002 | 110.02275 | 33108 ft | 501 kts | 79° |
| 2026-04-27 12:21 | 30.46150 | 110.10210 | 33113 ft | 503 kts | 79° |